Авиационная погода в Вардё

Регион: 
Погода METAR: 
ENSS 061020Z 23028KT 9999 DRSN FEW030 BKN042 M08/M12 Q1016 RMK WIND 500FT 24037KT
Время наблюдения
2021-12-06T10:20:00Z
Температура C
-8.0
Точка росы
-12.0
Направление ветра
230
Скорость ветра (узлы)
28
Метео видимость
6.21
Явления погоды
DRSN
Условия полета
VFR